sensor_id;sensor_type;location;lat;lon;timestamp;P1;durP1;ratioP1;P2;durP2;ratioP2
43990;SDS011;29654;50.784;20.604;2024-01-30T00:03:13;42.22;;;24.05;;
43990;SDS011;29654;50.784;20.604;2024-01-30T00:08:16;51.78;;;29.05;;
43990;SDS011;29654;50.784;20.604;2024-01-30T00:13:21;48.85;;;27.40;;
43990;SDS011;29654;50.784;20.604;2024-01-30T00:18:35;59.08;;;31.05;;
43990;SDS011;29654;50.784;20.604;2024-01-30T00:23:39;55.10;;;30.63;;
43990;SDS011;29654;50.784;20.604;2024-01-30T00:28:43;36.58;;;23.27;;
43990;SDS011;29654;50.784;20.604;2024-01-30T00:33:46;29.92;;;18.17;;
43990;SDS011;29654;50.784;20.604;2024-01-30T00:38:48;32.33;;;20.67;;
43990;SDS011;29654;50.784;20.604;2024-01-30T00:43:53;48.03;;;28.23;;
43990;SDS011;29654;50.784;20.604;2024-01-30T00:48:55;54.55;;;28.80;;
43990;SDS011;29654;50.784;20.604;2024-01-30T00:53:58;53.53;;;29.85;;
43990;SDS011;29654;50.784;20.604;2024-01-30T00:59:02;53.83;;;30.25;;
43990;SDS011;29654;50.784;20.604;2024-01-30T01:04:05;48.95;;;29.13;;
43990;SDS011;29654;50.784;20.604;2024-01-30T01:09:10;48.58;;;27.20;;
43990;SDS011;29654;50.784;20.604;2024-01-30T01:14:15;44.35;;;24.75;;
43990;SDS011;29654;50.784;20.604;2024-01-30T01:19:17;43.58;;;23.85;;
43990;SDS011;29654;50.784;20.604;2024-01-30T01:24:20;41.78;;;24.55;;
43990;SDS011;29654;50.784;20.604;2024-01-30T01:29:24;48.20;;;25.05;;
43990;SDS011;29654;50.784;20.604;2024-01-30T01:34:29;44.78;;;23.83;;
43990;SDS011;29654;50.784;20.604;2024-01-30T01:39:32;34.65;;;19.58;;
43990;SDS011;29654;50.784;20.604;2024-01-30T01:44:36;39.17;;;23.23;;
43990;SDS011;29654;50.784;20.604;2024-01-30T01:49:38;41.10;;;22.52;;
43990;SDS011;29654;50.784;20.604;2024-01-30T01:54:41;39.45;;;22.65;;
43990;SDS011;29654;50.784;20.604;2024-01-30T01:59:45;38.28;;;22.90;;
43990;SDS011;29654;50.784;20.604;2024-01-30T02:04:49;30.10;;;18.58;;
43990;SDS011;29654;50.784;20.604;2024-01-30T02:09:51;35.13;;;20.25;;
43990;SDS011;29654;50.784;20.604;2024-01-30T02:14:55;35.58;;;20.75;;
43990;SDS011;29654;50.784;20.604;2024-01-30T02:19:58;33.40;;;20.63;;
43990;SDS011;29654;50.784;20.604;2024-01-30T02:25:02;33.15;;;20.73;;
43990;SDS011;29654;50.784;20.604;2024-01-30T02:30:06;27.98;;;17.77;;
43990;SDS011;29654;50.784;20.604;2024-01-30T02:35:10;32.67;;;20.20;;
43990;SDS011;29654;50.784;20.604;2024-01-30T02:40:14;31.80;;;18.35;;
43990;SDS011;29654;50.784;20.604;2024-01-30T02:45:17;26.35;;;17.45;;
43990;SDS011;29654;50.784;20.604;2024-01-30T02:50:19;31.42;;;20.33;;
43990;SDS011;29654;50.784;20.604;2024-01-30T02:55:24;29.77;;;19.15;;
43990;SDS011;29654;50.784;20.604;2024-01-30T03:00:26;28.13;;;18.42;;
43990;SDS011;29654;50.784;20.604;2024-01-30T03:05:29;32.90;;;18.88;;
43990;SDS011;29654;50.784;20.604;2024-01-30T03:10:33;32.08;;;19.33;;
43990;SDS011;29654;50.784;20.604;2024-01-30T03:15:39;31.67;;;19.50;;
43990;SDS011;29654;50.784;20.604;2024-01-30T03:20:44;33.08;;;20.23;;
43990;SDS011;29654;50.784;20.604;2024-01-30T03:25:48;28.70;;;18.30;;
43990;SDS011;29654;50.784;20.604;2024-01-30T03:30:51;28.90;;;17.98;;
43990;SDS011;29654;50.784;20.604;2024-01-30T03:35:54;30.33;;;18.00;;
43990;SDS011;29654;50.784;20.604;2024-01-30T03:40:58;28.77;;;18.17;;
43990;SDS011;29654;50.784;20.604;2024-01-30T03:46:01;22.35;;;14.40;;
43990;SDS011;29654;50.784;20.604;2024-01-30T03:51:04;29.92;;;17.67;;
43990;SDS011;29654;50.784;20.604;2024-01-30T03:56:08;27.23;;;17.80;;
43990;SDS011;29654;50.784;20.604;2024-01-30T04:01:13;30.85;;;18.65;;
43990;SDS011;29654;50.784;20.604;2024-01-30T04:06:15;31.42;;;18.13;;
43990;SDS011;29654;50.784;20.604;2024-01-30T04:11:20;28.02;;;19.00;;
43990;SDS011;29654;50.784;20.604;2024-01-30T04:16:22;30.13;;;17.90;;
43990;SDS011;29654;50.784;20.604;2024-01-30T04:21:25;26.23;;;16.30;;
43990;SDS011;29654;50.784;20.604;2024-01-30T04:26:29;26.02;;;15.70;;
43990;SDS011;29654;50.784;20.604;2024-01-30T04:31:32;29.67;;;18.17;;
43990;SDS011;29654;50.784;20.604;2024-01-30T04:36:34;30.77;;;17.40;;
43990;SDS011;29654;50.784;20.604;2024-01-30T04:41:38;24.42;;;14.80;;
43990;SDS011;29654;50.784;20.604;2024-01-30T04:46:41;29.15;;;18.98;;
43990;SDS011;29654;50.784;20.604;2024-01-30T04:51:44;31.17;;;17.48;;
43990;SDS011;29654;50.784;20.604;2024-01-30T04:56:48;23.88;;;16.38;;
43990;SDS011;29654;50.784;20.604;2024-01-30T05:01:50;26.55;;;15.80;;
43990;SDS011;29654;50.784;20.604;2024-01-30T05:06:53;24.92;;;15.98;;
43990;SDS011;29654;50.784;20.604;2024-01-30T05:11:57;24.67;;;16.25;;
43990;SDS011;29654;50.784;20.604;2024-01-30T05:17:00;22.73;;;16.05;;
43990;SDS011;29654;50.784;20.604;2024-01-30T05:22:03;20.52;;;15.15;;
43990;SDS011;29654;50.784;20.604;2024-01-30T05:27:07;24.10;;;15.18;;
43990;SDS011;29654;50.784;20.604;2024-01-30T05:32:10;23.92;;;16.38;;
43990;SDS011;29654;50.784;20.604;2024-01-30T05:37:13;32.55;;;19.85;;
43990;SDS011;29654;50.784;20.604;2024-01-30T05:42:18;34.92;;;23.92;;
43990;SDS011;29654;50.784;20.604;2024-01-30T05:47:21;30.85;;;19.33;;
43990;SDS011;29654;50.784;20.604;2024-01-30T05:52:24;30.77;;;18.08;;
43990;SDS011;29654;50.784;20.604;2024-01-30T05:57:28;29.25;;;18.92;;
43990;SDS011;29654;50.784;20.604;2024-01-30T06:02:30;32.53;;;19.92;;
43990;SDS011;29654;50.784;20.604;2024-01-30T06:07:33;30.13;;;19.50;;
43990;SDS011;29654;50.784;20.604;2024-01-30T06:12:37;38.17;;;23.42;;
43990;SDS011;29654;50.784;20.604;2024-01-30T06:17:40;33.30;;;20.00;;
43990;SDS011;29654;50.784;20.604;2024-01-30T06:22:42;32.95;;;19.42;;
43990;SDS011;29654;50.784;20.604;2024-01-30T06:27:46;31.17;;;19.50;;
43990;SDS011;29654;50.784;20.604;2024-01-30T06:32:49;36.90;;;23.90;;
43990;SDS011;29654;50.784;20.604;2024-01-30T06:37:52;43.47;;;25.98;;
43990;SDS011;29654;50.784;20.604;2024-01-30T06:42:56;37.80;;;25.48;;
43990;SDS011;29654;50.784;20.604;2024-01-30T06:47:58;39.78;;;24.65;;
43990;SDS011;29654;50.784;20.604;2024-01-30T06:53:01;40.65;;;25.83;;
43990;SDS011;29654;50.784;20.604;2024-01-30T06:58:06;42.28;;;27.42;;
43990;SDS011;29654;50.784;20.604;2024-01-30T07:03:08;48.63;;;28.50;;
43990;SDS011;29654;50.784;20.604;2024-01-30T07:08:11;39.90;;;23.90;;
43990;SDS011;29654;50.784;20.604;2024-01-30T07:13:16;52.30;;;30.65;;
43990;SDS011;29654;50.784;20.604;2024-01-30T07:18:19;40.35;;;24.55;;
43990;SDS011;29654;50.784;20.604;2024-01-30T07:23:21;42.63;;;24.73;;
43990;SDS011;29654;50.784;20.604;2024-01-30T07:28:25;33.35;;;21.35;;
43990;SDS011;29654;50.784;20.604;2024-01-30T07:33:28;29.45;;;17.67;;
43990;SDS011;29654;50.784;20.604;2024-01-30T07:38:31;26.60;;;17.55;;
43990;SDS011;29654;50.784;20.604;2024-01-30T07:43:35;25.02;;;16.77;;
43990;SDS011;29654;50.784;20.604;2024-01-30T07:48:39;25.52;;;16.80;;
43990;SDS011;29654;50.784;20.604;2024-01-30T07:53:42;17.20;;;12.25;;
43990;SDS011;29654;50.784;20.604;2024-01-30T07:58:46;17.13;;;11.18;;
43990;SDS011;29654;50.784;20.604;2024-01-30T08:03:49;15.02;;;10.10;;
43990;SDS011;29654;50.784;20.604;2024-01-30T08:08:52;14.40;;;9.98;;
43990;SDS011;29654;50.784;20.604;2024-01-30T08:13:56;14.60;;;9.45;;
43990;SDS011;29654;50.784;20.604;2024-01-30T08:18:58;12.80;;;9.20;;
43990;SDS011;29654;50.784;20.604;2024-01-30T08:24:02;13.35;;;9.38;;
43990;SDS011;29654;50.784;20.604;2024-01-30T08:29:06;16.60;;;11.07;;
43990;SDS011;29654;50.784;20.604;2024-01-30T08:34:09;17.35;;;11.90;;
43990;SDS011;29654;50.784;20.604;2024-01-30T08:39:12;12.93;;;9.65;;
43990;SDS011;29654;50.784;20.604;2024-01-30T08:44:16;11.10;;;8.60;;
43990;SDS011;29654;50.784;20.604;2024-01-30T08:49:19;17.13;;;9.95;;
43990;SDS011;29654;50.784;20.604;2024-01-30T08:54:22;13.73;;;9.73;;
43990;SDS011;29654;50.784;20.604;2024-01-30T08:59:27;13.15;;;8.52;;
43990;SDS011;29654;50.784;20.604;2024-01-30T09:04:29;13.50;;;8.88;;
43990;SDS011;29654;50.784;20.604;2024-01-30T09:09:32;14.25;;;10.02;;
43990;SDS011;29654;50.784;20.604;2024-01-30T09:14:37;10.75;;;8.40;;
43990;SDS011;29654;50.784;20.604;2024-01-30T09:19:40;12.82;;;9.57;;
43990;SDS011;29654;50.784;20.604;2024-01-30T09:24:43;11.88;;;9.60;;
43990;SDS011;29654;50.784;20.604;2024-01-30T09:29:47;12.20;;;9.30;;
43990;SDS011;29654;50.784;20.604;2024-01-30T09:34:50;12.07;;;9.15;;
43990;SDS011;29654;50.784;20.604;2024-01-30T09:39:52;14.10;;;9.73;;
43990;SDS011;29654;50.784;20.604;2024-01-30T09:44:57;13.02;;;8.88;;
43990;SDS011;29654;50.784;20.604;2024-01-30T09:50:00;12.50;;;8.68;;
43990;SDS011;29654;50.784;20.604;2024-01-30T09:55:06;11.80;;;8.65;;
43990;SDS011;29654;50.784;20.604;2024-01-30T10:00:12;14.15;;;9.50;;
43990;SDS011;29654;50.784;20.604;2024-01-30T10:05:15;8.68;;;7.60;;
43990;SDS011;29654;50.784;20.604;2024-01-30T10:10:21;10.85;;;8.20;;
43990;SDS011;29654;50.784;20.604;2024-01-30T10:15:26;12.23;;;8.52;;
43990;SDS011;29654;50.784;20.604;2024-01-30T10:20:30;10.30;;;7.55;;
43990;SDS011;29654;50.784;20.604;2024-01-30T10:25:33;10.95;;;7.50;;
43990;SDS011;29654;50.784;20.604;2024-01-30T10:30:38;9.93;;;7.60;;
43990;SDS011;29654;50.784;20.604;2024-01-30T10:35:41;10.45;;;7.70;;
43990;SDS011;29654;50.784;20.604;2024-01-30T10:40:44;10.70;;;8.02;;
43990;SDS011;29654;50.784;20.604;2024-01-30T10:45:50;10.75;;;8.65;;
43990;SDS011;29654;50.784;20.604;2024-01-30T10:50:58;11.85;;;8.60;;
43990;SDS011;29654;50.784;20.604;2024-01-30T10:56:04;11.98;;;8.35;;
43990;SDS011;29654;50.784;20.604;2024-01-30T11:01:09;8.57;;;7.03;;
43990;SDS011;29654;50.784;20.604;2024-01-30T11:06:13;9.93;;;7.45;;
43990;SDS011;29654;50.784;20.604;2024-01-30T11:11:18;9.55;;;7.93;;
43990;SDS011;29654;50.784;20.604;2024-01-30T11:16:30;9.02;;;7.03;;
43990;SDS011;29654;50.784;20.604;2024-01-30T11:21:34;8.75;;;6.22;;
43990;SDS011;29654;50.784;20.604;2024-01-30T11:26:44;8.90;;;6.60;;
43990;SDS011;29654;50.784;20.604;2024-01-30T11:31:54;9.80;;;7.40;;
43990;SDS011;29654;50.784;20.604;2024-01-30T11:36:58;9.00;;;6.38;;
43990;SDS011;29654;50.784;20.604;2024-01-30T11:42:06;8.82;;;5.95;;
43990;SDS011;29654;50.784;20.604;2024-01-30T11:47:11;8.20;;;6.22;;
43990;SDS011;29654;50.784;20.604;2024-01-30T11:52:14;7.70;;;6.50;;
43990;SDS011;29654;50.784;20.604;2024-01-30T11:57:18;7.45;;;6.30;;
43990;SDS011;29654;50.784;20.604;2024-01-30T12:02:22;7.63;;;6.43;;
43990;SDS011;29654;50.784;20.604;2024-01-30T12:07:25;8.20;;;5.90;;
43990;SDS011;29654;50.784;20.604;2024-01-30T12:12:29;8.18;;;5.85;;
43990;SDS011;29654;50.784;20.604;2024-01-30T12:17:34;8.27;;;6.63;;
43990;SDS011;29654;50.784;20.604;2024-01-30T12:22:37;8.40;;;6.07;;
43990;SDS011;29654;50.784;20.604;2024-01-30T12:27:42;8.05;;;6.28;;
43990;SDS011;29654;50.784;20.604;2024-01-30T12:32:49;7.82;;;6.28;;
43990;SDS011;29654;50.784;20.604;2024-01-30T12:37:52;8.13;;;6.60;;
43990;SDS011;29654;50.784;20.604;2024-01-30T12:42:55;6.72;;;6.03;;
43990;SDS011;29654;50.784;20.604;2024-01-30T12:47:59;9.13;;;6.55;;
43990;SDS011;29654;50.784;20.604;2024-01-30T12:53:02;7.78;;;6.15;;
43990;SDS011;29654;50.784;20.604;2024-01-30T12:58:06;7.00;;;6.28;;
43990;SDS011;29654;50.784;20.604;2024-01-30T13:03:10;8.93;;;6.60;;
43990;SDS011;29654;50.784;20.604;2024-01-30T13:08:14;10.18;;;7.05;;
43990;SDS011;29654;50.784;20.604;2024-01-30T13:13:18;6.97;;;6.25;;
43990;SDS011;29654;50.784;20.604;2024-01-30T13:18:22;6.50;;;5.75;;
43990;SDS011;29654;50.784;20.604;2024-01-30T13:23:25;7.25;;;6.03;;
43990;SDS011;29654;50.784;20.604;2024-01-30T13:28:27;7.35;;;6.25;;
43990;SDS011;29654;50.784;20.604;2024-01-30T13:33:32;6.55;;;5.85;;
43990;SDS011;29654;50.784;20.604;2024-01-30T13:38:34;9.00;;;6.05;;
43990;SDS011;29654;50.784;20.604;2024-01-30T13:43:37;9.32;;;7.15;;
43990;SDS011;29654;50.784;20.604;2024-01-30T13:48:41;9.95;;;7.78;;
43990;SDS011;29654;50.784;20.604;2024-01-30T13:53:44;7.85;;;6.63;;
43990;SDS011;29654;50.784;20.604;2024-01-30T13:58:47;10.13;;;7.30;;
43990;SDS011;29654;50.784;20.604;2024-01-30T14:03:52;8.25;;;7.30;;
43990;SDS011;29654;50.784;20.604;2024-01-30T14:08:54;11.40;;;7.28;;
43990;SDS011;29654;50.784;20.604;2024-01-30T14:13:58;11.07;;;7.75;;
43990;SDS011;29654;50.784;20.604;2024-01-30T14:19:02;6.78;;;6.07;;
43990;SDS011;29654;50.784;20.604;2024-01-30T14:24:05;6.88;;;5.75;;
43990;SDS011;29654;50.784;20.604;2024-01-30T14:29:08;7.25;;;5.32;;
43990;SDS011;29654;50.784;20.604;2024-01-30T14:34:12;8.95;;;6.72;;
43990;SDS011;29654;50.784;20.604;2024-01-30T14:39:15;8.70;;;6.72;;
43990;SDS011;29654;50.784;20.604;2024-01-30T14:44:18;9.20;;;7.00;;
43990;SDS011;29654;50.784;20.604;2024-01-30T14:49:22;8.57;;;7.22;;
43990;SDS011;29654;50.784;20.604;2024-01-30T14:54:25;7.18;;;6.43;;
43990;SDS011;29654;50.784;20.604;2024-01-30T14:59:28;7.95;;;7.13;;
43990;SDS011;29654;50.784;20.604;2024-01-30T15:04:32;9.02;;;6.82;;
43990;SDS011;29654;50.784;20.604;2024-01-30T15:09:35;9.45;;;6.22;;
43990;SDS011;29654;50.784;20.604;2024-01-30T15:14:38;7.32;;;5.72;;
43990;SDS011;29654;50.784;20.604;2024-01-30T15:19:42;6.85;;;5.88;;
43990;SDS011;29654;50.784;20.604;2024-01-30T15:24:45;7.75;;;4.78;;
43990;SDS011;29654;50.784;20.604;2024-01-30T15:29:47;9.65;;;5.72;;
43990;SDS011;29654;50.784;20.604;2024-01-30T15:34:51;6.75;;;4.93;;
43990;SDS011;29654;50.784;20.604;2024-01-30T15:39:55;7.18;;;5.63;;
43990;SDS011;29654;50.784;20.604;2024-01-30T15:44:57;7.32;;;6.10;;
43990;SDS011;29654;50.784;20.604;2024-01-30T15:50:01;8.13;;;6.25;;
43990;SDS011;29654;50.784;20.604;2024-01-30T15:55:05;7.53;;;6.05;;
43990;SDS011;29654;50.784;20.604;2024-01-30T16:00:08;9.70;;;6.13;;
43990;SDS011;29654;50.784;20.604;2024-01-30T16:05:15;10.85;;;7.85;;
43990;SDS011;29654;50.784;20.604;2024-01-30T16:10:18;12.27;;;7.95;;
43990;SDS011;29654;50.784;20.604;2024-01-30T16:15:20;12.85;;;7.95;;
43990;SDS011;29654;50.784;20.604;2024-01-30T16:20:26;12.50;;;7.82;;
43990;SDS011;29654;50.784;20.604;2024-01-30T16:25:29;12.05;;;8.48;;
43990;SDS011;29654;50.784;20.604;2024-01-30T16:30:31;11.45;;;8.40;;
43990;SDS011;29654;50.784;20.604;2024-01-30T16:35:36;14.52;;;9.43;;
43990;SDS011;29654;50.784;20.604;2024-01-30T16:40:39;8.82;;;6.55;;
43990;SDS011;29654;50.784;20.604;2024-01-30T16:45:42;13.20;;;8.82;;
43990;SDS011;29654;50.784;20.604;2024-01-30T16:50:46;12.23;;;9.07;;
43990;SDS011;29654;50.784;20.604;2024-01-30T16:55:49;13.07;;;8.23;;
43990;SDS011;29654;50.784;20.604;2024-01-30T17:00:52;15.48;;;9.60;;
43990;SDS011;29654;50.784;20.604;2024-01-30T17:05:56;13.18;;;9.57;;
43990;SDS011;29654;50.784;20.604;2024-01-30T17:11:04;12.18;;;9.45;;
43990;SDS011;29654;50.784;20.604;2024-01-30T17:16:08;11.93;;;8.63;;
43990;SDS011;29654;50.784;20.604;2024-01-30T17:21:16;15.52;;;10.00;;
43990;SDS011;29654;50.784;20.604;2024-01-30T17:26:19;15.02;;;8.90;;
43990;SDS011;29654;50.784;20.604;2024-01-30T17:31:22;14.30;;;8.88;;
43990;SDS011;29654;50.784;20.604;2024-01-30T17:36:26;13.32;;;9.95;;
43990;SDS011;29654;50.784;20.604;2024-01-30T17:41:29;14.45;;;10.38;;
43990;SDS011;29654;50.784;20.604;2024-01-30T17:46:32;14.75;;;10.38;;
43990;SDS011;29654;50.784;20.604;2024-01-30T17:51:39;13.40;;;9.88;;
43990;SDS011;29654;50.784;20.604;2024-01-30T17:56:42;14.48;;;10.27;;
43990;SDS011;29654;50.784;20.604;2024-01-30T18:01:45;15.80;;;11.63;;
43990;SDS011;29654;50.784;20.604;2024-01-30T18:06:50;16.10;;;11.40;;
43990;SDS011;29654;50.784;20.604;2024-01-30T18:11:54;18.17;;;12.43;;
43990;SDS011;29654;50.784;20.604;2024-01-30T18:16:57;21.48;;;14.20;;
43990;SDS011;29654;50.784;20.604;2024-01-30T18:22:01;21.13;;;14.65;;
43990;SDS011;29654;50.784;20.604;2024-01-30T18:27:04;19.73;;;13.25;;
43990;SDS011;29654;50.784;20.604;2024-01-30T18:32:09;21.02;;;14.10;;
43990;SDS011;29654;50.784;20.604;2024-01-30T18:37:17;22.17;;;13.48;;
43990;SDS011;29654;50.784;20.604;2024-01-30T18:42:23;22.75;;;13.88;;
43990;SDS011;29654;50.784;20.604;2024-01-30T18:47:27;19.30;;;13.98;;
43990;SDS011;29654;50.784;20.604;2024-01-30T18:52:31;21.02;;;14.45;;
43990;SDS011;29654;50.784;20.604;2024-01-30T18:57:34;19.42;;;12.57;;
43990;SDS011;29654;50.784;20.604;2024-01-30T19:02:38;18.38;;;12.98;;
43990;SDS011;29654;50.784;20.604;2024-01-30T19:07:43;21.55;;;13.52;;
43990;SDS011;29654;50.784;20.604;2024-01-30T19:12:49;21.70;;;14.43;;
43990;SDS011;29654;50.784;20.604;2024-01-30T19:17:52;15.68;;;11.13;;
43990;SDS011;29654;50.784;20.604;2024-01-30T19:22:56;20.58;;;13.80;;
43990;SDS011;29654;50.784;20.604;2024-01-30T19:28:00;19.33;;;12.88;;
43990;SDS011;29654;50.784;20.604;2024-01-30T19:33:04;21.65;;;14.05;;
43990;SDS011;29654;50.784;20.604;2024-01-30T19:38:09;19.42;;;13.23;;
43990;SDS011;29654;50.784;20.604;2024-01-30T19:43:14;19.92;;;14.10;;
43990;SDS011;29654;50.784;20.604;2024-01-30T19:48:17;22.45;;;13.63;;
43990;SDS011;29654;50.784;20.604;2024-01-30T19:53:21;17.75;;;12.05;;
43990;SDS011;29654;50.784;20.604;2024-01-30T19:58:24;21.13;;;13.52;;
43990;SDS011;29654;50.784;20.604;2024-01-30T20:03:27;21.00;;;14.50;;
43990;SDS011;29654;50.784;20.604;2024-01-30T20:08:31;13.30;;;9.52;;
43990;SDS011;29654;50.784;20.604;2024-01-30T20:13:34;18.17;;;12.88;;
43990;SDS011;29654;50.784;20.604;2024-01-30T20:18:40;14.32;;;10.90;;
43990;SDS011;29654;50.784;20.604;2024-01-30T20:23:44;21.10;;;13.73;;
43990;SDS011;29654;50.784;20.604;2024-01-30T20:28:49;19.25;;;12.85;;
43990;SDS011;29654;50.784;20.604;2024-01-30T20:33:54;16.30;;;11.10;;
43990;SDS011;29654;50.784;20.604;2024-01-30T20:39:00;21.77;;;14.68;;
43990;SDS011;29654;50.784;20.604;2024-01-30T20:44:04;22.02;;;14.25;;
43990;SDS011;29654;50.784;20.604;2024-01-30T20:49:07;20.60;;;12.60;;
43990;SDS011;29654;50.784;20.604;2024-01-30T20:54:12;21.17;;;13.90;;
43990;SDS011;29654;50.784;20.604;2024-01-30T20:59:15;20.20;;;13.77;;
43990;SDS011;29654;50.784;20.604;2024-01-30T21:04:17;19.77;;;13.77;;
43990;SDS011;29654;50.784;20.604;2024-01-30T21:09:21;20.95;;;14.68;;
43990;SDS011;29654;50.784;20.604;2024-01-30T21:14:24;17.80;;;12.30;;
43990;SDS011;29654;50.784;20.604;2024-01-30T21:19:27;17.77;;;12.95;;
43990;SDS011;29654;50.784;20.604;2024-01-30T21:24:32;20.20;;;12.98;;
43990;SDS011;29654;50.784;20.604;2024-01-30T21:29:34;19.80;;;13.70;;
43990;SDS011;29654;50.784;20.604;2024-01-30T21:34:37;20.17;;;14.40;;
43990;SDS011;29654;50.784;20.604;2024-01-30T21:39:42;21.38;;;14.45;;
43990;SDS011;29654;50.784;20.604;2024-01-30T21:44:44;23.38;;;14.60;;
43990;SDS011;29654;50.784;20.604;2024-01-30T21:49:47;26.70;;;17.02;;
43990;SDS011;29654;50.784;20.604;2024-01-30T21:54:51;26.17;;;17.75;;
43990;SDS011;29654;50.784;20.604;2024-01-30T21:59:54;24.58;;;14.68;;
43990;SDS011;29654;50.784;20.604;2024-01-30T22:04:57;20.88;;;14.27;;
43990;SDS011;29654;50.784;20.604;2024-01-30T22:10:04;19.98;;;13.27;;
43990;SDS011;29654;50.784;20.604;2024-01-30T22:15:08;22.90;;;15.13;;
43990;SDS011;29654;50.784;20.604;2024-01-30T22:20:12;25.13;;;16.00;;
43990;SDS011;29654;50.784;20.604;2024-01-30T22:25:18;38.75;;;22.52;;
43990;SDS011;29654;50.784;20.604;2024-01-30T22:30:23;33.58;;;20.73;;
43990;SDS011;29654;50.784;20.604;2024-01-30T22:35:28;29.35;;;18.17;;
43990;SDS011;29654;50.784;20.604;2024-01-30T22:40:33;33.33;;;20.98;;
43990;SDS011;29654;50.784;20.604;2024-01-30T22:45:38;36.70;;;18.80;;
43990;SDS011;29654;50.784;20.604;2024-01-30T22:50:41;33.28;;;18.70;;
43990;SDS011;29654;50.784;20.604;2024-01-30T22:55:47;51.28;;;28.77;;
43990;SDS011;29654;50.784;20.604;2024-01-30T23:00:51;51.47;;;31.67;;
43990;SDS011;29654;50.784;20.604;2024-01-30T23:05:55;65.50;;;34.72;;
43990;SDS011;29654;50.784;20.604;2024-01-30T23:11:00;62.33;;;34.08;;
43990;SDS011;29654;50.784;20.604;2024-01-30T23:16:03;53.30;;;29.23;;
43990;SDS011;29654;50.784;20.604;2024-01-30T23:21:08;54.60;;;30.95;;
43990;SDS011;29654;50.784;20.604;2024-01-30T23:26:12;40.38;;;23.67;;
43990;SDS011;29654;50.784;20.604;2024-01-30T23:31:16;32.08;;;20.20;;
43990;SDS011;29654;50.784;20.604;2024-01-30T23:36:19;36.60;;;23.33;;
43990;SDS011;29654;50.784;20.604;2024-01-30T23:41:25;32.13;;;18.65;;
43990;SDS011;29654;50.784;20.604;2024-01-30T23:46:28;28.13;;;18.15;;
43990;SDS011;29654;50.784;20.604;2024-01-30T23:51:31;25.30;;;15.90;;
43990;SDS011;29654;50.784;20.604;2024-01-30T23:56:38;24.33;;;15.55;;
